Chester, VA (23831)

4:05 PM EST on December 18, 2014 (GMT -0500)
Bookie's Weather Station | Change Station
CLOSE
Current Station
Personal Weather Station
Location: Chesterfield, VA
Elevation: 200 ft
Nearby Weather Stations

Elev 200 ft 37.31 °N, 77.45 °W | Updated 1 second ago

Clear
Clear
44.7 °F
Feels Like 45 °F
N
0.0
Wind Variable Wind from NNW
Gusts 0.0 mph

Today
High -- | Low -- °F
--% Chance of Precip.
Yesterday
High -- | Low -- °F
Precip. -- in
7:18 AM 4:54 PM
Waning Crescent, 12% visible
Pressure 30.10 in
Visibility 10.0 miles
Clouds Clear
Windchill 45 °F
Dew Point 27 °F
Humidity 50%
Rainfall 0.00 in
Snow Depth Not available.
UV 0 out of 12
Pollen .10 out of 12
Air Quality Not available.
Flu Activity Not available.
METAR KFCI 182055Z AUTO 01005KT 10SM CLR 07/M09 A3010 RMK AO1 57007

More Conditions Fewer Conditions

Pressure 30.10 in
Visibility 10.0 miles
Clouds Clear
Windchill 45 °F
Dew Point 27 °F
Humidity 50%
Rainfall 0.00 in
Snow Depth Not available.
UV 0 out of 12
Pollen .10 out of 12
Air Quality Not available.
Flu Activity Not available.
METAR KFCI 182055Z AUTO 01005KT 10SM CLR 07/M09 A3010 RMK AO1 57007

More Conditions Fewer Conditions

10-Day Weather Forecast

Almanac

Astronomy

Dec. 18, 2014 Rise Set
Actual Time
Civil Twilight
Nautical Twilight
Astronomical Twilight
Moon
Length of Visible Light
Length of Day
Tomorrow will be .
, % of the Moon is Illuminated

Today's Extremes

State Highs State Lows

Community

WunderPhotos

Upload Photos

1,778,997 photos uploaded!

WunderBlogs® & News

Nearby

Air Quality

  Air Quality AQ Index Pollutant
Not available.

Snow Depth

Station Depth Elevation

Earthquake Activity

City Distance Mag. Time & Date
Minimum magnitude displayed is 2.5.

Coastal Water Temperatures

Place Temperature

Nearby Weather Stations